Time;durP1;ratioP1;P1;durP2;ratioP2;P2;SDS_P1;SDS_P2;PMS_P1;PMS_P2;Temp;Humidity;BMP_temperature;BMP_pressure;BME280_temperature;BME280_humidity;BME280_pressure;Samples;Min_cycle;Max_cycle;Signal;HPM_P1;HPM_P2
2022/12/21 00:00:10;;;;;;;;;2.00;2.00;;;;;;;;5043421;28;61828;-75
2022/12/21 00:02:36;;;;;;;;;6.00;5.00;;;;;;;;5043993;28;62043;-75
2022/12/21 00:05:01;;;;;;;;;3.25;3.00;;;;;;;;5043755;28;61918;-75
2022/12/21 00:07:26;;;;;;;;;6.25;4.75;;;;;;;;5042817;28;61744;-75
2022/12/21 00:09:52;;;;;;;;;4.25;4.25;;;;;;;;5041784;28;64678;-75
2022/12/21 00:12:17;;;;;;;;;5.50;4.75;;;;;;;;5042352;28;61933;-75
2022/12/21 00:14:42;;;;;;;;;5.75;4.00;;;;;;;;5044158;28;61898;-75
2022/12/21 00:17:07;;;;;;;;;6.50;5.25;;;;;;;;5044013;28;61750;-75
2022/12/21 00:19:33;;;;;;;;;7.00;5.00;;;;;;;;5042878;28;61920;-75
2022/12/21 00:21:58;;;;;;;;;8.75;5.75;;;;;;;;5043643;28;61687;-75
2022/12/21 00:24:23;;;;;;;;;4.25;4.25;;;;;;;;5043958;28;62149;-75
2022/12/21 00:26:49;;;;;;;;;6.25;6.00;;;;;;;;5043991;28;61924;-75
2022/12/21 00:29:15;;;;;;;;;9.50;6.50;;;;;;;;5043189;28;61789;-75
2022/12/21 00:31:40;;;;;;;;;3.25;3.25;;;;;;;;5043313;28;61762;-75
2022/12/21 00:34:06;;;;;;;;;9.25;4.75;;;;;;;;5042294;28;61846;-75
2022/12/21 00:36:31;;;;;;;;;13.25;5.50;;;;;;;;5043841;28;61662;-75
2022/12/21 00:38:57;;;;;;;;;8.75;6.25;;;;;;;;5043058;28;61899;-74
2022/12/21 00:41:23;;;;;;;;;8.25;6.00;;;;;;;;5043466;28;61999;-75
2022/12/21 00:43:49;;;;;;;;;5.50;4.50;;;;;;;;5043260;28;61888;-76
2022/12/21 00:46:18;;;;;;;;;7.25;6.00;;;;;;;;5043534;28;61997;-75
2022/12/21 00:48:44;;;;;;;;;7.75;7.75;;;;;;;;5042793;28;62037;-75
2022/12/21 00:51:11;;;;;;;;;9.00;7.50;;;;;;;;5043490;28;61711;-75
2022/12/21 00:53:36;;;;;;;;;5.00;5.00;;;;;;;;5043419;28;61841;-75
2022/12/21 00:56:02;;;;;;;;;8.50;4.00;;;;;;;;5043508;28;61804;-75
2022/12/21 00:58:28;;;;;;;;;7.25;4.75;;;;;;;;5042383;28;61830;-75
2022/12/21 01:00:54;;;;;;;;;4.00;4.00;;;;;;;;5042036;28;61812;-75
2022/12/21 01:03:20;;;;;;;;;8.00;7.25;;;;;;;;5043262;28;61751;-75
2022/12/21 01:05:48;;;;;;;;;4.25;4.00;;;;;;;;5043464;28;61710;-74
2022/12/21 01:08:14;;;;;;;;;6.00;4.00;;;;;;;;5042004;28;61757;-74
2022/12/21 01:10:39;;;;;;;;;5.50;5.50;;;;;;;;5042885;28;62267;-75
2022/12/21 01:13:05;;;;;;;;;6.00;4.00;;;;;;;;5042836;28;61870;-75
2022/12/21 01:15:30;;;;;;;;;5.00;5.00;;;;;;;;5042256;28;61904;-75
2022/12/21 01:17:55;;;;;;;;;7.25;3.25;;;;;;;;5042552;28;61865;-74
2022/12/21 01:20:21;;;;;;;;;3.00;3.00;;;;;;;;5042732;28;61764;-74
2022/12/21 01:22:46;;;;;;;;;5.00;4.00;;;;;;;;5042859;28;61845;-75
2022/12/21 01:25:11;;;;;;;;;3.50;3.50;;;;;;;;5041873;28;61785;-74
2022/12/21 01:27:37;;;;;;;;;6.25;4.25;;;;;;;;5041720;28;62754;-74
2022/12/21 01:30:03;;;;;;;;;7.50;4.00;;;;;;;;5041305;28;61731;-74
2022/12/21 01:32:28;;;;;;;;;4.00;4.00;;;;;;;;5042914;28;61905;-75
2022/12/21 01:34:53;;;;;;;;;4.25;4.25;;;;;;;;5041711;28;62146;-75
2022/12/21 01:37:19;;;;;;;;;5.00;5.00;;;;;;;;5040894;28;63853;-74
2022/12/21 01:39:44;;;;;;;;;4.75;3.00;;;;;;;;5042449;28;61773;-75
2022/12/21 01:42:12;;;;;;;;;3.00;3.00;;;;;;;;5042491;28;62405;-75
2022/12/21 01:44:47;;;;;;;;;6.75;5.50;;;;;;;;5042704;28;62134;-75
2022/12/21 01:47:14;;;;;;;;;3.50;3.50;;;;;;;;5042341;28;61789;-75
2022/12/21 01:49:40;;;;;;;;;7.75;5.25;;;;;;;;5040697;28;62187;-75
2022/12/21 01:52:07;;;;;;;;;3.50;3.00;;;;;;;;5042625;28;61869;-75
2022/12/21 01:54:38;;;;;;;;;3.00;3.00;;;;;;;;5043002;28;61877;-75
2022/12/21 01:57:07;;;;;;;;;1.75;1.75;;;;;;;;5041767;28;62033;-75
2022/12/21 01:59:33;;;;;;;;;2.50;1.25;;;;;;;;5040991;28;62062;-75
2022/12/21 02:02:01;;;;;;;;;1.00;1.00;;;;;;;;5042443;28;61725;-75
2022/12/21 02:04:26;;;;;;;;;0.00;0.00;;;;;;;;5041273;28;62147;-75
2022/12/21 02:06:55;;;;;;;;;1.00;1.00;;;;;;;;5041743;28;61848;-75
2022/12/21 02:09:21;;;;;;;;;2.00;1.00;;;;;;;;5040742;28;61769;-75
2022/12/21 02:11:46;;;;;;;;;0.75;0.75;;;;;;;;5041848;28;61860;-75
2022/12/21 02:14:15;;;;;;;;;0.00;0.00;;;;;;;;5042656;28;61679;-75
2022/12/21 02:16:40;;;;;;;;;1.00;1.00;;;;;;;;5041452;28;62900;-75
2022/12/21 02:19:14;;;;;;;;;0.00;0.00;;;;;;;;5040653;28;61885;-75
2022/12/21 02:21:49;;;;;;;;;0.50;0.50;;;;;;;;5042267;28;61803;-75
2022/12/21 02:24:36;;;;;;;;;1.25;0.00;;;;;;;;5042369;28;61796;-76
2022/12/21 02:27:10;;;;;;;;;0.50;0.50;;;;;;;;5042464;28;62710;-75
2022/12/21 02:29:54;;;;;;;;;0.00;0.00;;;;;;;;5044129;28;61975;-75
2022/12/21 02:32:34;;;;;;;;;0.00;0.00;;;;;;;;5045753;28;61886;-75
2022/12/21 02:35:27;;;;;;;;;0.00;0.00;;;;;;;;5044267;28;61847;-75
2022/12/21 02:38:07;;;;;;;;;5.00;3.25;;;;;;;;5044935;28;61899;-75
2022/12/21 02:40:45;;;;;;;;;0.00;0.00;;;;;;;;5044092;28;61752;-76
2022/12/21 02:46:16;;;;;;;;;0.00;0.00;;;;;;;;5045620;28;61814;-76
2022/12/21 02:48:53;;;;;;;;;0.50;0.00;;;;;;;;5044619;28;62173;-76
2022/12/21 02:51:25;;;;;;;;;1.00;1.00;;;;;;;;5045436;28;61912;-75
2022/12/21 02:53:51;;;;;;;;;1.25;0.25;;;;;;;;5044078;28;61941;-75
2022/12/21 02:56:17;;;;;;;;;0.00;0.00;;;;;;;;5045270;28;62129;-76
2022/12/21 02:58:42;;;;;;;;;0.00;0.00;;;;;;;;5044554;28;61983;-76
2022/12/21 03:01:13;;;;;;;;;1.00;1.00;;;;;;;;5045326;28;61776;-76
2022/12/21 03:03:59;;;;;;;;;1.00;0.50;;;;;;;;5045181;28;61868;-75
2022/12/21 03:06:43;;;;;;;;;2.00;1.00;;;;;;;;5037882;28;61842;-75
2022/12/21 03:09:14;;;;;;;;;0.00;0.00;;;;;;;;5043878;28;61984;-75
2022/12/21 03:11:39;;;;;;;;;0.00;0.00;;;;;;;;5043311;28;61844;-75
2022/12/21 03:14:09;;;;;;;;;1.75;0.25;;;;;;;;5044941;28;61913;-76
2022/12/21 03:16:55;;;;;;;;;0.00;0.00;;;;;;;;5045375;28;61837;-75
2022/12/21 03:19:27;;;;;;;;;1.50;0.00;;;;;;;;5042772;28;65039;-75
2022/12/21 03:22:01;;;;;;;;;0.00;0.00;;;;;;;;5043238;28;61755;-76
2022/12/21 03:24:48;;;;;;;;;1.00;1.00;;;;;;;;5043425;28;61711;-76
2022/12/21 03:27:21;;;;;;;;;0.00;0.00;;;;;;;;5043434;28;61816;-75
2022/12/21 03:29:53;;;;;;;;;1.00;0.00;;;;;;;;5044143;28;61927;-75
2022/12/21 03:32:21;;;;;;;;;0.25;0.25;;;;;;;;5044392;28;61901;-75
2022/12/21 03:34:48;;;;;;;;;1.75;0.25;;;;;;;;5043209;28;61801;-75
2022/12/21 03:37:14;;;;;;;;;0.00;0.00;;;;;;;;5044860;28;61750;-75
2022/12/21 03:39:42;;;;;;;;;1.75;1.00;;;;;;;;5041590;28;63893;-76
2022/12/21 03:42:14;;;;;;;;;1.75;1.75;;;;;;;;5044435;28;62039;-75
2022/12/21 03:44:41;;;;;;;;;3.50;2.00;;;;;;;;5043026;28;61728;-76
2022/12/21 03:47:14;;;;;;;;;3.00;3.00;;;;;;;;5044695;28;61784;-76
2022/12/21 03:49:43;;;;;;;;;3.00;2.00;;;;;;;;5043564;28;61905;-76
2022/12/21 03:52:11;;;;;;;;;0.50;0.50;;;;;;;;5044195;28;61760;-76
2022/12/21 03:54:42;;;;;;;;;1.75;1.75;;;;;;;;5044398;28;61786;-76
2022/12/21 03:57:08;;;;;;;;;0.50;0.50;;;;;;;;5044506;28;62245;-75
2022/12/21 03:59:36;;;;;;;;;1.00;1.00;;;;;;;;5043779;28;62036;-75
2022/12/21 04:02:04;;;;;;;;;1.25;1.25;;;;;;;;5044273;28;61813;-75
2022/12/21 04:04:33;;;;;;;;;2.00;1.00;;;;;;;;5044274;28;61774;-75
2022/12/21 04:07:00;;;;;;;;;2.00;1.00;;;;;;;;5042864;28;61981;-76
2022/12/21 04:09:25;;;;;;;;;0.25;0.25;;;;;;;;5043300;28;62909;-75
2022/12/21 04:14:35;;;;;;;;;0.00;0.00;;;;;;;;5044327;28;61883;-75
2022/12/21 04:17:01;;;;;;;;;1.50;1.00;;;;;;;;5042883;28;61909;-75
2022/12/21 04:28:06;;;;;;;;;1.00;1.00;;;;;;;;5043274;28;62606;-76
2022/12/21 04:30:23;;;;;;;;;2.50;2.50;;;;;;;;5043217;28;62382;-76
2022/12/21 04:32:48;;;;;;;;;3.00;3.00;;;;;;;;5043651;28;61745;-75
2022/12/21 04:35:14;;;;;;;;;4.00;3.00;;;;;;;;5043741;28;61808;-75
2022/12/21 04:37:39;;;;;;;;;6.00;3.00;;;;;;;;5042400;28;61800;-75
2022/12/21 04:40:05;;;;;;;;;6.50;3.25;;;;;;;;5041595;28;65029;-75
2022/12/21 04:42:30;;;;;;;;;4.50;4.00;;;;;;;;5043534;28;61869;-75
2022/12/21 04:44:55;;;;;;;;;3.75;3.75;;;;;;;;5042292;28;61857;-75
2022/12/21 04:47:21;;;;;;;;;6.00;3.25;;;;;;;;5043756;28;61741;-76
2022/12/21 04:49:46;;;;;;;;;4.00;4.00;;;;;;;;5041200;28;63932;-75
2022/12/21 04:52:11;;;;;;;;;4.75;2.25;;;;;;;;5043213;28;61847;-75
2022/12/21 04:54:36;;;;;;;;;7.25;4.00;;;;;;;;5043403;28;61951;-75
2022/12/21 04:57:02;;;;;;;;;3.50;2.25;;;;;;;;5043520;28;61972;-76
2022/12/21 04:59:27;;;;;;;;;3.00;1.00;;;;;;;;5041384;28;64871;-75
2022/12/21 05:01:52;;;;;;;;;3.00;3.00;;;;;;;;5043257;28;61800;-75
2022/12/21 05:04:18;;;;;;;;;1.00;1.00;;;;;;;;5043458;28;61862;-76
2022/12/21 05:06:43;;;;;;;;;1.50;1.50;;;;;;;;5043222;28;61829;-75
2022/12/21 05:09:11;;;;;;;;;2.75;2.00;;;;;;;;5042508;28;62024;-76
2022/12/21 05:11:37;;;;;;;;;2.00;2.00;;;;;;;;5043061;28;61793;-75
2022/12/21 05:14:02;;;;;;;;;4.00;2.75;;;;;;;;5042932;28;61761;-76
2022/12/21 05:16:27;;;;;;;;;2.50;2.50;;;;;;;;5043405;28;61990;-75
2022/12/21 05:18:53;;;;;;;;;5.25;3.00;;;;;;;;5042306;28;62659;-75
2022/12/21 05:21:18;;;;;;;;;3.75;3.25;;;;;;;;5042778;28;61737;-76
2022/12/21 05:23:44;;;;;;;;;3.25;3.25;;;;;;;;5041387;28;61797;-75
2022/12/21 05:26:10;;;;;;;;;1.00;1.00;;;;;;;;5043350;28;61969;-75
2022/12/21 05:28:35;;;;;;;;;3.00;3.00;;;;;;;;5042280;28;61695;-76
2022/12/21 05:31:02;;;;;;;;;1.00;1.00;;;;;;;;5042932;28;62012;-75
2022/12/21 05:33:28;;;;;;;;;3.00;2.00;;;;;;;;5041485;28;62002;-75
2022/12/21 05:35:53;;;;;;;;;3.75;2.00;;;;;;;;5042873;28;61706;-76
2022/12/21 05:38:18;;;;;;;;;2.00;1.75;;;;;;;;5042307;28;61976;-76
2022/12/21 05:40:47;;;;;;;;;3.00;1.75;;;;;;;;5041320;28;61885;-75
2022/12/21 05:43:12;;;;;;;;;1.75;1.00;;;;;;;;5042835;28;61887;-75
2022/12/21 05:45:38;;;;;;;;;1.00;1.00;;;;;;;;5042668;28;62100;-75
2022/12/21 05:48:03;;;;;;;;;3.00;1.00;;;;;;;;5042158;28;61805;-75
2022/12/21 05:50:28;;;;;;;;;2.25;0.50;;;;;;;;5042115;28;61995;-75
2022/12/21 05:52:53;;;;;;;;;2.00;1.00;;;;;;;;5042524;28;61818;-75
2022/12/21 05:55:19;;;;;;;;;4.00;1.00;;;;;;;;5042848;28;61810;-76
2022/12/21 05:57:44;;;;;;;;;1.00;1.00;;;;;;;;5041762;28;61927;-75
2022/12/21 06:00:10;;;;;;;;;0.25;0.25;;;;;;;;5042460;28;61939;-75
2022/12/21 06:02:35;;;;;;;;;0.50;0.50;;;;;;;;5040687;28;61905;-75
2022/12/21 06:05:00;;;;;;;;;1.00;1.00;;;;;;;;5041031;28;61829;-75
2022/12/21 06:07:26;;;;;;;;;1.00;1.00;;;;;;;;5040662;28;64838;-76
2022/12/21 06:09:51;;;;;;;;;4.25;0.00;;;;;;;;5041954;28;61965;-75
2022/12/21 06:12:16;;;;;;;;;1.50;0.75;;;;;;;;5041088;28;62233;-75
2022/12/21 06:14:41;;;;;;;;;1.00;1.00;;;;;;;;5040794;28;61808;-76
2022/12/21 06:17:07;;;;;;;;;2.25;1.00;;;;;;;;5041521;28;61669;-75
2022/12/21 06:19:32;;;;;;;;;0.00;0.00;;;;;;;;5041822;28;61809;-75
2022/12/21 06:21:57;;;;;;;;;3.50;0.00;;;;;;;;5042080;28;61766;-75
2022/12/21 06:24:22;;;;;;;;;0.50;0.50;;;;;;;;5042600;28;61787;-75
2022/12/21 06:26:48;;;;;;;;;2.25;1.00;;;;;;;;5041122;28;62050;-76
2022/12/21 06:29:13;;;;;;;;;0.00;0.00;;;;;;;;5041041;28;61984;-75
2022/12/21 06:31:38;;;;;;;;;3.00;0.50;;;;;;;;5042360;28;61806;-76
2022/12/21 06:34:04;;;;;;;;;1.50;1.50;;;;;;;;5042160;28;61880;-75
2022/12/21 06:36:30;;;;;;;;;1.00;1.00;;;;;;;;5041602;28;62000;-75
2022/12/21 06:38:56;;;;;;;;;1.75;1.00;;;;;;;;5042046;28;61846;-77
2022/12/21 06:41:21;;;;;;;;;2.75;1.75;;;;;;;;5042181;28;61737;-76
2022/12/21 06:43:46;;;;;;;;;2.00;2.00;;;;;;;;5042258;28;62044;-74
2022/12/21 06:46:15;;;;;;;;;1.50;1.00;;;;;;;;5041458;28;61761;-75
2022/12/21 06:48:41;;;;;;;;;2.00;0.00;;;;;;;;5041587;28;61675;-76
2022/12/21 06:51:17;;;;;;;;;2.50;1.00;;;;;;;;5041711;28;61722;-76
2022/12/21 06:53:44;;;;;;;;;1.00;1.00;;;;;;;;5042324;28;61910;-75
2022/12/21 06:56:13;;;;;;;;;6.50;2.25;;;;;;;;5041276;28;62444;-76
2022/12/21 06:58:38;;;;;;;;;1.50;1.00;;;;;;;;5041729;28;62237;-75
2022/12/21 07:01:08;;;;;;;;;3.50;1.75;;;;;;;;5040089;28;62371;-75
2022/12/21 07:03:33;;;;;;;;;1.50;1.50;;;;;;;;5042184;28;61759;-75
2022/12/21 07:05:59;;;;;;;;;3.00;1.00;;;;;;;;5041004;28;62852;-75
2022/12/21 07:08:24;;;;;;;;;1.00;1.00;;;;;;;;5040155;28;62113;-75
2022/12/21 07:10:54;;;;;;;;;2.00;1.00;;;;;;;;5040995;28;61778;-77
2022/12/21 07:13:19;;;;;;;;;1.75;1.75;;;;;;;;5041175;28;61775;-74
2022/12/21 07:15:46;;;;;;;;;1.00;1.00;;;;;;;;5044321;28;61855;-75
2022/12/21 07:18:11;;;;;;;;;0.00;0.00;;;;;;;;5044971;28;61640;-75
2022/12/21 07:20:36;;;;;;;;;1.00;1.00;;;;;;;;5044329;28;61658;-76
2022/12/21 07:23:02;;;;;;;;;1.50;1.00;;;;;;;;5044282;28;62113;-75
2022/12/21 07:25:28;;;;;;;;;1.00;1.00;;;;;;;;5043812;28;63733;-74
2022/12/21 07:27:55;;;;;;;;;3.50;1.75;;;;;;;;5044464;28;62089;-75
2022/12/21 07:30:20;;;;;;;;;3.00;2.25;;;;;;;;5044689;28;61733;-75
2022/12/21 07:32:46;;;;;;;;;1.00;1.00;;;;;;;;5045005;28;61738;-75
2022/12/21 07:35:17;;;;;;;;;1.50;1.50;;;;;;;;5044194;28;62646;-75
2022/12/21 07:37:43;;;;;;;;;3.50;2.00;;;;;;;;5044842;28;61632;-76
2022/12/21 07:40:15;;;;;;;;;1.25;1.25;;;;;;;;5044618;28;61706;-75
2022/12/21 07:42:41;;;;;;;;;2.25;2.25;;;;;;;;5044784;28;62035;-74
2022/12/21 07:45:07;;;;;;;;;3.25;2.00;;;;;;;;5043640;28;61812;-75
2022/12/21 07:47:32;;;;;;;;;2.00;1.00;;;;;;;;5044548;28;61801;-75
2022/12/21 07:49:57;;;;;;;;;1.00;1.00;;;;;;;;5044318;28;61790;-75
2022/12/21 07:52:23;;;;;;;;;3.00;3.00;;;;;;;;5044261;28;61750;-76
2022/12/21 07:54:48;;;;;;;;;2.00;1.25;;;;;;;;5043911;28;61940;-75
2022/12/21 07:57:13;;;;;;;;;2.50;2.50;;;;;;;;5044153;28;61750;-76
2022/12/21 07:59:38;;;;;;;;;3.25;1.75;;;;;;;;5044004;28;62045;-77
2022/12/21 08:02:04;;;;;;;;;2.50;2.00;;;;;;;;5044310;28;62255;-75
2022/12/21 08:04:29;;;;;;;;;2.75;1.50;;;;;;;;5042490;28;64566;-79
2022/12/21 08:06:55;;;;;;;;;2.25;2.25;;;;;;;;5042542;28;61866;-75
2022/12/21 08:09:20;;;;;;;;;1.00;1.00;;;;;;;;5041954;28;61805;-77
2022/12/21 08:11:46;;;;;;;;;4.00;2.50;;;;;;;;5044143;28;61862;-77
2022/12/21 08:14:11;;;;;;;;;2.75;2.75;;;;;;;;5042299;28;61879;-77
2022/12/21 08:16:36;;;;;;;;;1.50;1.50;;;;;;;;5042935;28;61843;-77
2022/12/21 08:19:02;;;;;;;;;1.25;1.25;;;;;;;;5041763;28;62169;-77
2022/12/21 08:21:27;;;;;;;;;3.75;1.75;;;;;;;;5044037;28;61684;-77
2022/12/21 08:23:52;;;;;;;;;1.75;1.00;;;;;;;;5041793;28;64783;-76
2022/12/21 08:26:18;;;;;;;;;1.00;1.00;;;;;;;;5042109;28;61772;-77
2022/12/21 08:28:44;;;;;;;;;3.75;2.00;;;;;;;;5043732;28;61774;-77
2022/12/21 08:31:14;;;;;;;;;4.00;2.75;;;;;;;;5042476;28;61763;-77
2022/12/21 08:33:43;;;;;;;;;3.25;2.00;;;;;;;;5043038;28;61956;-77
2022/12/21 08:36:12;;;;;;;;;2.75;2.00;;;;;;;;5042566;28;61782;-76
2022/12/21 08:38:38;;;;;;;;;1.75;1.75;;;;;;;;5042194;28;62099;-77
2022/12/21 08:41:03;;;;;;;;;3.00;2.50;;;;;;;;5035109;28;61930;-77
2022/12/21 08:43:29;;;;;;;;;3.00;1.00;;;;;;;;5020983;28;63755;-77
2022/12/21 08:45:54;;;;;;;;;4.00;1.00;;;;;;;;5027194;28;61852;-76
2022/12/21 08:48:19;;;;;;;;;4.25;2.00;;;;;;;;5043324;28;61837;-77
2022/12/21 08:50:51;;;;;;;;;2.25;1.00;;;;;;;;5041869;28;61719;-79
2022/12/21 08:53:16;;;;;;;;;0.75;0.75;;;;;;;;5043095;28;61753;-77
2022/12/21 08:55:42;;;;;;;;;2.00;1.00;;;;;;;;5043154;28;61931;-76
2022/12/21 08:58:07;;;;;;;;;2.00;2.00;;;;;;;;5042929;28;61948;-77
2022/12/21 09:00:33;;;;;;;;;1.00;1.00;;;;;;;;5039729;28;61923;-76
2022/12/21 09:02:58;;;;;;;;;2.00;2.00;;;;;;;;5022600;28;61687;-76
2022/12/21 09:05:23;;;;;;;;;1.00;1.00;;;;;;;;5026499;28;61864;-77
2022/12/21 09:07:48;;;;;;;;;1.00;0.50;;;;;;;;5038310;28;61912;-78
2022/12/21 09:10:14;;;;;;;;;4.00;1.00;;;;;;;;5042901;28;62166;-79
2022/12/21 09:12:39;;;;;;;;;1.00;1.00;;;;;;;;5040746;28;63735;-78
2022/12/21 09:15:05;;;;;;;;;1.00;1.00;;;;;;;;5028886;28;61837;-77
2022/12/21 09:17:30;;;;;;;;;1.75;1.25;;;;;;;;5042381;28;61829;-77
2022/12/21 09:19:55;;;;;;;;;3.25;3.00;;;;;;;;5041463;28;61928;-77
2022/12/21 09:22:21;;;;;;;;;2.00;2.00;;;;;;;;5042278;28;62875;-78
2022/12/21 09:24:46;;;;;;;;;2.25;1.75;;;;;;;;5042874;28;61835;-78
2022/12/21 09:27:11;;;;;;;;;1.00;1.00;;;;;;;;5041041;28;61959;-77
2022/12/21 09:29:37;;;;;;;;;1.50;1.50;;;;;;;;5042295;28;61919;-76
2022/12/21 09:32:02;;;;;;;;;7.00;3.25;;;;;;;;5041863;28;62427;-76
2022/12/21 09:34:28;;;;;;;;;2.00;2.00;;;;;;;;5042226;28;61952;-77
2022/12/21 09:36:53;;;;;;;;;1.00;1.00;;;;;;;;5040399;28;61932;-77
2022/12/21 09:39:18;;;;;;;;;2.75;2.00;;;;;;;;5042599;28;61927;-77
2022/12/21 09:42:02;;;;;;;;;7.75;2.25;;;;;;;;5040007;28;63625;-77
2022/12/21 09:44:32;;;;;;;;;2.50;2.50;;;;;;;;5040947;28;61704;-76
2022/12/21 09:47:00;;;;;;;;;3.75;1.00;;;;;;;;5041181;28;62198;-80
2022/12/21 09:49:37;;;;;;;;;4.50;4.00;;;;;;;;5041252;28;61853;-78
2022/12/21 09:52:05;;;;;;;;;1.75;1.75;;;;;;;;5042166;28;61822;-80
2022/12/21 09:54:41;;;;;;;;;1.25;1.00;;;;;;;;5042639;28;61963;-81
2022/12/21 09:57:08;;;;;;;;;3.00;1.00;;;;;;;;5040612;28;61892;-77
2022/12/21 09:59:34;;;;;;;;;1.00;1.00;;;;;;;;5040514;28;62105;-77
2022/12/21 10:01:59;;;;;;;;;1.50;1.00;;;;;;;;5041437;28;62756;-77
2022/12/21 10:04:25;;;;;;;;;5.00;2.00;;;;;;;;5028752;28;61847;-76
2022/12/21 10:06:53;;;;;;;;;6.25;3.25;;;;;;;;5020818;28;62661;-76
2022/12/21 10:09:18;;;;;;;;;3.00;2.00;;;;;;;;5032928;28;61963;-76
2022/12/21 10:11:56;;;;;;;;;8.25;3.00;;;;;;;;5041304;28;63173;-76
2022/12/21 10:14:47;;;;;;;;;4.25;1.50;;;;;;;;5039980;28;61822;-76
2022/12/21 10:17:28;;;;;;;;;3.00;3.00;;;;;;;;5022483;28;61862;-77
2022/12/21 10:20:11;;;;;;;;;2.75;2.50;;;;;;;;5022164;28;61725;-76
2022/12/21 10:22:44;;;;;;;;;3.00;2.00;;;;;;;;5020001;28;63499;-77
2022/12/21 10:25:16;;;;;;;;;5.50;4.00;;;;;;;;5053316;28;61911;-76
2022/12/21 10:28:01;;;;;;;;;3.50;3.25;;;;;;;;5040537;28;61825;-77
2022/12/21 10:30:29;;;;;;;;;3.00;3.00;;;;;;;;5035590;28;62317;-77
2022/12/21 10:32:54;;;;;;;;;6.00;3.00;;;;;;;;5038525;28;61960;-76
2022/12/21 10:35:21;;;;;;;;;5.25;3.00;;;;;;;;5022311;28;62046;-76
2022/12/21 10:37:48;;;;;;;;;4.00;3.00;;;;;;;;5022700;28;61774;-76
2022/12/21 10:40:14;;;;;;;;;6.25;2.00;;;;;;;;5039265;28;61707;-76
2022/12/21 10:42:40;;;;;;;;;4.50;2.00;;;;;;;;5038529;28;62088;-76
2022/12/21 10:45:12;;;;;;;;;3.00;2.00;;;;;;;;5038957;28;61838;-77
2022/12/21 10:47:37;;;;;;;;;2.25;2.00;;;;;;;;5039892;28;62012;-76
2022/12/21 10:50:22;;;;;;;;;3.00;2.00;;;;;;;;5025856;28;61936;-76
2022/12/21 10:52:49;;;;;;;;;1.75;1.75;;;;;;;;5042024;28;61838;-77
2022/12/21 10:55:17;;;;;;;;;2.00;2.00;;;;;;;;5042520;28;61858;-76
2022/12/21 10:57:42;;;;;;;;;2.50;2.25;;;;;;;;5042243;28;61978;-77
2022/12/21 11:00:20;;;;;;;;;1.75;1.75;;;;;;;;5025822;28;61833;-76
2022/12/21 11:02:46;;;;;;;;;4.25;3.00;;;;;;;;5041724;28;61778;-76
2022/12/21 11:05:32;;;;;;;;;4.75;2.50;;;;;;;;5025720;28;61839;-76
2022/12/21 11:08:14;;;;;;;;;2.00;1.00;;;;;;;;5036323;28;62523;-77
2022/12/21 11:10:42;;;;;;;;;7.00;2.75;;;;;;;;5044234;28;61789;-76
2022/12/21 11:13:10;;;;;;;;;4.50;3.50;;;;;;;;5044253;28;61837;-76
2022/12/21 11:15:35;;;;;;;;;3.50;3.00;;;;;;;;5044095;28;61793;-76
2022/12/21 11:18:00;;;;;;;;;3.25;2.00;;;;;;;;5044959;28;61837;-76
2022/12/21 11:20:26;;;;;;;;;2.75;2.00;;;;;;;;5044924;28;61769;-76
2022/12/21 11:22:52;;;;;;;;;2.25;2.25;;;;;;;;5042207;28;65042;-75
2022/12/21 11:25:20;;;;;;;;;4.00;3.00;;;;;;;;5043488;28;61805;-76
2022/12/21 11:27:47;;;;;;;;;1.50;1.50;;;;;;;;5044842;28;61853;-76
2022/12/21 11:30:22;;;;;;;;;3.25;3.00;;;;;;;;5044710;28;61682;-76
2022/12/21 11:32:49;;;;;;;;;3.75;2.75;;;;;;;;5043924;28;62775;-76
2022/12/21 11:35:22;;;;;;;;;2.25;2.25;;;;;;;;5044563;28;61777;-76
2022/12/21 11:37:53;;;;;;;;;3.00;2.50;;;;;;;;5044421;28;61775;-76
2022/12/21 11:40:20;;;;;;;;;7.50;6.25;;;;;;;;5045110;28;62304;-76
2022/12/21 11:42:52;;;;;;;;;2.00;2.00;;;;;;;;5043573;28;62449;-76
2022/12/21 11:45:22;;;;;;;;;1.50;1.50;;;;;;;;5039460;28;61913;-75
2022/12/21 11:47:55;;;;;;;;;3.25;3.25;;;;;;;;5024607;28;61790;-74
2022/12/21 11:50:41;;;;;;;;;10.75;3.00;;;;;;;;5024424;28;62073;-75
2022/12/21 11:53:09;;;;;;;;;1.00;0.25;;;;;;;;5029637;28;62842;-75
2022/12/21 11:55:40;;;;;;;;;2.50;1.75;;;;;;;;5043989;28;61974;-75
2022/12/21 11:58:11;;;;;;;;;4.00;3.00;;;;;;;;5044058;28;61736;-75
2022/12/21 12:00:43;;;;;;;;;4.00;2.25;;;;;;;;5043872;28;62023;-75
2022/12/21 12:03:08;;;;;;;;;4.00;3.00;;;;;;;;5043601;28;62976;-75
2022/12/21 12:05:57;;;;;;;;;4.25;4.25;;;;;;;;5042650;28;61710;-75
2022/12/21 12:08:28;;;;;;;;;5.25;3.00;;;;;;;;5045847;28;61964;-75
2022/12/21 12:11:00;;;;;;;;;4.00;3.25;;;;;;;;5044092;28;61786;-75
2022/12/21 12:13:37;;;;;;;;;4.25;2.75;;;;;;;;5042022;28;63864;-75
2022/12/21 12:16:21;;;;;;;;;2.50;2.50;;;;;;;;5041369;28;62151;-76
2022/12/21 12:18:55;;;;;;;;;3.25;2.75;;;;;;;;5056813;28;62003;-75
2022/12/21 12:21:23;;;;;;;;;3.50;3.50;;;;;;;;5040585;28;61734;-75
2022/12/21 12:24:17;;;;;;;;;8.25;3.00;;;;;;;;5041802;28;62696;-76
2022/12/21 12:27:00;;;;;;;;;2.00;2.00;;;;;;;;5039993;28;62036;-76
2022/12/21 12:29:32;;;;;;;;;5.00;2.00;;;;;;;;5056710;28;62066;-75
2022/12/21 12:32:20;;;;;;;;;6.50;3.00;;;;;;;;5055919;28;62212;-76
2022/12/21 12:34:59;;;;;;;;;6.25;4.25;;;;;;;;5039504;28;61841;-75
2022/12/21 12:37:37;;;;;;;;;3.25;2.00;;;;;;;;5041069;28;61905;-76
2022/12/21 12:40:31;;;;;;;;;4.75;4.00;;;;;;;;5040264;28;61969;-76
2022/12/21 12:43:05;;;;;;;;;3.50;2.25;;;;;;;;5050248;28;62060;-75
2022/12/21 12:45:53;;;;;;;;;1.25;1.25;;;;;;;;5038253;28;62080;-75
2022/12/21 12:48:18;;;;;;;;;3.00;1.50;;;;;;;;5037562;28;61885;-75
2022/12/21 12:50:49;;;;;;;;;5.50;3.00;;;;;;;;5041362;28;61722;-75
2022/12/21 12:53:17;;;;;;;;;5.00;4.00;;;;;;;;5043631;28;61727;-75
2022/12/21 12:56:01;;;;;;;;;6.00;3.75;;;;;;;;5042830;28;62691;-75
2022/12/21 12:58:39;;;;;;;;;3.50;3.50;;;;;;;;5041566;28;61806;-75
2022/12/21 13:01:07;;;;;;;;;3.00;3.00;;;;;;;;5042727;28;61971;-75
2022/12/21 13:03:35;;;;;;;;;6.25;3.25;;;;;;;;5043118;28;62098;-74
2022/12/21 13:06:06;;;;;;;;;2.00;2.00;;;;;;;;5042835;28;62126;-76
2022/12/21 13:09:00;;;;;;;;;4.00;3.00;;;;;;;;5043052;28;61911;-75
2022/12/21 13:11:34;;;;;;;;;5.00;3.00;;;;;;;;5041122;28;61694;-78
2022/12/21 13:14:02;;;;;;;;;2.00;2.00;;;;;;;;5043259;28;61910;-78
2022/12/21 13:16:34;;;;;;;;;2.50;2.00;;;;;;;;5042598;28;61780;-78
2022/12/21 13:19:02;;;;;;;;;6.50;5.00;;;;;;;;5041571;28;61822;-78
2022/12/21 13:21:29;;;;;;;;;2.75;2.00;;;;;;;;5041393;28;61900;-78
2022/12/21 13:23:58;;;;;;;;;1.75;1.75;;;;;;;;5043234;28;61847;-79
2022/12/21 13:26:24;;;;;;;;;1.00;1.00;;;;;;;;5042383;28;62023;-78
2022/12/21 13:29:01;;;;;;;;;1.00;1.00;;;;;;;;5042590;28;62006;-78
2022/12/21 13:31:29;;;;;;;;;2.00;1.25;;;;;;;;5041498;28;61692;-79
2022/12/21 13:34:05;;;;;;;;;4.25;2.00;;;;;;;;5041557;28;62098;-78
2022/12/21 13:36:36;;;;;;;;;1.00;1.00;;;;;;;;5042085;28;62666;-78
2022/12/21 13:39:07;;;;;;;;;2.50;1.00;;;;;;;;5040946;28;61813;-78
2022/12/21 13:41:39;;;;;;;;;1.00;1.00;;;;;;;;5042671;28;61777;-78
2022/12/21 13:44:17;;;;;;;;;0.50;0.50;;;;;;;;5041429;28;61840;-78
2022/12/21 13:46:47;;;;;;;;;2.00;1.00;;;;;;;;5040585;28;64724;-78
2022/12/21 13:49:24;;;;;;;;;2.25;1.00;;;;;;;;5042223;28;61847;-78
2022/12/21 13:52:16;;;;;;;;;2.75;1.50;;;;;;;;5042683;28;61931;-78
2022/12/21 13:54:45;;;;;;;;;1.25;1.25;;;;;;;;5019962;28;61974;-78
2022/12/21 13:57:15;;;;;;;;;3.00;3.00;;;;;;;;5019562;28;61960;-78
2022/12/21 14:00:02;;;;;;;;;1.00;1.00;;;;;;;;5002938;28;61787;-78
2022/12/21 14:02:33;;;;;;;;;2.00;1.00;;;;;;;;5003233;28;61778;-78
2022/12/21 14:05:05;;;;;;;;;1.75;0.00;;;;;;;;5020136;28;62094;-78
2022/12/21 14:07:51;;;;;;;;;2.50;2.00;;;;;;;;5002702;28;64983;-78
2022/12/21 14:10:38;;;;;;;;;2.00;1.00;;;;;;;;5019342;28;61919;-78
2022/12/21 14:13:22;;;;;;;;;3.50;2.50;;;;;;;;5007287;28;61971;-78
2022/12/21 14:16:01;;;;;;;;;0.50;0.50;;;;;;;;5000318;28;61804;-78
2022/12/21 14:18:31;;;;;;;;;2.75;2.00;;;;;;;;4982827;28;63626;-78
2022/12/21 14:21:01;;;;;;;;;1.50;0.50;;;;;;;;5002681;28;61753;-78
2022/12/21 14:23:28;;;;;;;;;2.00;2.00;;;;;;;;5021527;28;62308;-78
2022/12/21 14:25:53;;;;;;;;;1.25;0.75;;;;;;;;5007083;28;61728;-78
2022/12/21 14:28:21;;;;;;;;;1.00;1.00;;;;;;;;5022610;28;62755;-78
2022/12/21 14:30:48;;;;;;;;;1.50;0.50;;;;;;;;5026971;28;61864;-78
2022/12/21 14:33:17;;;;;;;;;0.00;0.00;;;;;;;;5044711;28;61896;-78
2022/12/21 14:35:43;;;;;;;;;2.00;1.00;;;;;;;;5045757;28;61915;-78
2022/12/21 14:38:27;;;;;;;;;0.00;0.00;;;;;;;;5043711;28;63605;-77
2022/12/21 14:40:53;;;;;;;;;1.50;0.50;;;;;;;;5045488;28;61763;-77
2022/12/21 14:43:18;;;;;;;;;0.00;0.00;;;;;;;;5045304;28;61896;-77
2022/12/21 14:45:44;;;;;;;;;3.50;2.00;;;;;;;;5044394;28;61806;-77
2022/12/21 14:48:39;;;;;;;;;1.00;1.00;;;;;;;;5043535;28;63838;-77
2022/12/21 14:51:07;;;;;;;;;0.75;0.00;;;;;;;;5043978;28;62099;-77
2022/12/21 14:53:34;;;;;;;;;0.50;0.50;;;;;;;;5043918;28;61876;-76
2022/12/21 14:55:59;;;;;;;;;1.00;1.00;;;;;;;;5045559;28;62224;-76
2022/12/21 14:58:29;;;;;;;;;1.00;1.00;;;;;;;;5044668;28;62746;-76
2022/12/21 15:01:12;;;;;;;;;1.00;1.00;;;;;;;;5044671;28;61696;-75
2022/12/21 15:03:41;;;;;;;;;2.25;2.25;;;;;;;;5045298;28;62028;-76
2022/12/21 15:06:07;;;;;;;;;1.00;0.25;;;;;;;;5045375;28;61869;-76
2022/12/21 15:08:38;;;;;;;;;2.25;1.00;;;;;;;;5044555;28;62718;-75